Rogers City, MI

7:45 AM EDT on March 30, 2015 (GMT -0400)
West Erie St. | | Change Station
CLOSE
Current Station
Personal Weather Station
Location: Rogers City, MI
Elevation: 640 ft
Nearby Weather Stations

Elev 640 ft 45.42 °N, 83.82 °W | Updated 9 seconds ago

Overcast
Overcast
35.5 °F
Feels Like 36 °F
N
0.0
Wind Variable Wind from North
Gusts 0.0 mph

Today
High -- | Low -- °F
--% Chance of Precip.
Yesterday
High -- | Low -- °F
Precip. -- in
7:19 AM 8:00 PM
Waxing Gibbous, 79% visible
Pressure 29.71 in
Visibility 10.0 miles
Clouds Overcast 4300 ft
Windchill 36 °F
Dew Point 20 °F
Humidity 54%
Rainfall 0.04 in
Snow Depth Not available.
UV 0 out of 12
Pollen 3.10 out of 12
Air Quality Not available.
Flu Activity Not available.
METAR KPZQ 301134Z AUTO 27009KT 10SM OVC043 02/00 A2971 RMK AO2 T00151002

More Conditions Fewer Conditions

Pressure 29.71 in
Visibility 10.0 miles
Clouds Overcast 4300 ft
Windchill 36 °F
Dew Point 20 °F
Humidity 54%
Rainfall 0.04 in
Snow Depth Not available.
UV 0 out of 12
Pollen 3.10 out of 12
Air Quality Not available.
Flu Activity Not available.
METAR KPZQ 301134Z AUTO 27009KT 10SM OVC043 02/00 A2971 RMK AO2 T00151002

More Conditions Fewer Conditions

Nowcast | as of 7:00 am EDT on March 30, 2015

At 8 am...mostly cloudy. Slight chance of snow showers. Temperature 33. Northwest winds 17 mph. At 10 am...mostly cloudy. Slight chance of snow showers. Temperature 34. Northwest winds 18 mph with gusts to 30 mph. At 12 PM...partly cloudy. Temperature 36. Northwest winds 19 mph with gusts to 30 mph. At 2 PM...partly cloudy. Temperature 38. Northwest winds 17 mph with gusts to 30 mph.

×

10-Day Weather Forecast

Almanac

Astronomy

Mar. 30, 2015 Rise Set
Actual Time
Civil Twilight
Nautical Twilight
Astronomical Twilight
Moon
Length of Visible Light
Length of Day
Tomorrow will be .
, % of the Moon is Illuminated

Today's Extremes

State Highs State Lows

Community

WunderPhotos

Upload Photos

1,809,457 photos uploaded!

WunderBlogs® & News

Nearby

Air Quality

  Air Quality AQ Index Pollutant
Not available.

Snow Depth

Station Depth Elevation

Earthquake Activity

City Distance Mag. Time & Date
Minimum magnitude displayed is 2.5.

Coastal Water Temperatures

Place Temperature

Stations

Nearby Weather Stations

Station Location Temp. Windchill Dew Point Humidity Wind Precip. Elev Updated Type